Time;durP1;ratioP1;P1;durP2;ratioP2;P2;SDS_P1;SDS_P2;PMS_P1;PMS_P2;Temp;Humidity;BMP_temperature;BMP_pressure;BME280_temperature;BME280_humidity;BME280_pressure;Samples;Min_cycle;Max_cycle;Signal;HPM_P1;HPM_P2
2021/03/31 00:00:37;;;;;;;15.90;10.48;;;;;;;7.57;44.35;100994.21;1761496;79;21019;-49
2021/03/31 00:03:09;;;;;;;19.35;11.12;;;;;;;7.56;44.49;100990.64;1765383;79;21193;-49
2021/03/31 00:09:01;;;;;;;21.62;11.43;;;;;;;7.55;44.66;100996.90;1750361;79;22096;-48
2021/03/31 00:11:29;;;;;;;20.52;11.95;;;;;;;7.49;44.74;100990.76;1724774;80;21140;-49
2021/03/31 00:14:00;;;;;;;22.80;11.83;;;;;;;7.47;44.78;100989.91;1724461;80;22107;-50
2021/03/31 00:16:29;;;;;;;24.57;12.88;;;;;;;7.46;44.86;100988.15;1724538;82;21029;-48
2021/03/31 00:18:57;;;;;;;17.23;10.90;;;;;;;7.46;44.93;100982.78;1721981;80;21076;-48
2021/03/31 00:21:26;;;;;;;22.13;11.18;;;;;;;7.44;45.02;100985.93;1726804;81;20990;-49
2021/03/31 00:23:53;;;;;;;30.48;11.40;;;;;;;7.44;45.16;100989.95;1698899;82;20994;-48
2021/03/31 00:26:21;;;;;;;23.07;11.97;;;;;;;7.42;45.22;100986.42;1728751;82;21384;-49
2021/03/31 00:28:50;;;;;;;21.27;12.58;;;;;;;7.41;45.26;100995.39;1725662;82;21014;-49
2021/03/31 00:31:18;;;;;;;19.82;12.33;;;;;;;7.39;45.38;100990.48;1724873;82;21152;-49
2021/03/31 00:33:46;;;;;;;19.40;12.75;;;;;;;7.38;45.47;100984.23;1732665;82;21514;-50
2021/03/31 00:36:15;;;;;;;19.73;12.93;;;;;;;7.37;45.56;100986.50;1722846;82;21100;-49
2021/03/31 00:38:44;;;;;;;21.42;12.80;;;;;;;7.35;45.67;100981.17;1727377;82;21364;-49
2021/03/31 00:41:13;;;;;;;22.37;13.00;;;;;;;7.37;45.69;100977.56;1730044;82;21634;-49
2021/03/31 00:43:41;;;;;;;21.17;13.65;;;;;;;7.35;45.68;100981.17;1724483;82;21022;-49
2021/03/31 00:46:09;;;;;;;20.80;13.08;;;;;;;7.34;45.75;100979.37;1722419;82;22183;-49
2021/03/31 00:48:38;;;;;;;20.25;13.22;;;;;;;7.33;45.84;100974.92;1731494;82;20935;-50
2021/03/31 00:51:07;;;;;;;21.15;14.10;;;;;;;7.34;45.92;100968.63;1724354;82;21371;-52
2021/03/31 00:53:41;;;;;;;21.57;13.88;;;;;;;7.33;45.96;100968.21;1728178;82;21570;-49
2021/03/31 00:56:09;;;;;;;22.77;13.20;;;;;;;7.33;45.96;100957.48;1693344;82;21705;-51
2021/03/31 00:58:37;;;;;;;30.25;13.22;;;;;;;7.32;46.00;100965.56;1725502;82;21719;-51
2021/03/31 01:01:06;;;;;;;23.95;12.35;;;;;;;7.29;46.04;100965.14;1725268;82;21149;-50
2021/03/31 01:03:33;;;;;;;21.33;12.63;;;;;;;7.29;46.22;100966.95;1723174;82;21104;-51
2021/03/31 01:06:01;;;;;;;19.15;12.00;;;;;;;7.28;46.25;100968.75;1723480;82;21013;-51
2021/03/31 01:08:30;;;;;;;24.05;13.03;;;;;;;7.27;46.45;100967.44;1716313;82;21000;-52
2021/03/31 01:10:58;;;;;;;19.45;12.70;;;;;;;7.26;46.60;100962.53;1713787;82;21005;-51
2021/03/31 01:13:52;;;;;;;26.37;14.20;;;;;;;7.25;46.66;100951.38;1712511;82;21015;-51
2021/03/31 01:16:53;;;;;;;22.50;13.72;;;;;;;7.24;46.88;100946.90;1712009;82;21208;-51
2021/03/31 01:19:51;;;;;;;19.77;13.22;;;;;;;7.23;47.21;100941.11;1711324;82;21157;-51
2021/03/31 01:23:06;;;;;;;22.73;13.90;;;;;;;7.20;47.52;100935.81;1712906;82;21110;-54
2021/03/31 01:25:41;;;;;;;20.02;12.07;;;;;;;7.19;47.68;100942.09;1712230;82;21086;-50
2021/03/31 01:28:34;;;;;;;20.65;12.70;;;;;;;7.17;48.25;100939.00;1717406;82;21134;-52
2021/03/31 01:31:32;;;;;;;22.70;13.45;;;;;;;7.16;48.64;100939.45;1711683;82;21431;-50
2021/03/31 01:34:29;;;;;;;18.98;13.05;;;;;;;7.14;49.36;100934.59;1711276;82;21518;-51
2021/03/31 01:36:57;;;;;;;21.27;13.38;;;;;;;7.11;49.49;100927.91;1709875;82;20999;-51
2021/03/31 01:39:25;;;;;;;21.42;12.55;;;;;;;7.06;50.02;100927.11;1712480;82;21042;-51
2021/03/31 01:41:53;;;;;;;21.68;13.20;;;;;;;7.03;50.49;100925.80;1708113;82;21090;-50
2021/03/31 01:44:21;;;;;;;24.05;14.00;;;;;;;7.02;50.70;100922.70;1711540;82;21385;-51
2021/03/31 01:46:54;;;;;;;21.93;13.55;;;;;;;7.00;50.73;100918.71;1710176;82;21184;-51
2021/03/31 01:49:25;;;;;;;22.27;13.00;;;;;;;6.98;50.88;100912.95;1714297;82;22213;-52
2021/03/31 01:51:59;;;;;;;19.65;12.88;;;;;;;6.95;51.18;100911.20;1712407;82;21162;-51
2021/03/31 01:54:27;;;;;;;23.00;13.78;;;;;;;6.93;51.45;100913.48;1710792;82;21938;-50
2021/03/31 01:56:55;;;;;;;23.67;14.13;;;;;;;6.90;51.97;100906.82;1688583;82;22156;-50
2021/03/31 01:59:23;;;;;;;22.90;14.05;;;;;;;6.87;52.29;100917.59;1712186;82;21027;-51
2021/03/31 02:01:52;;;;;;;21.23;13.93;;;;;;;6.86;52.73;100913.14;1712679;82;21168;-51
2021/03/31 02:04:21;;;;;;;20.82;13.45;;;;;;;6.82;52.96;100911.87;1711736;81;22083;-51
2021/03/31 02:06:50;;;;;;;21.97;13.78;;;;;;;6.81;52.98;100912.75;1710591;81;21133;-50
2021/03/31 02:09:18;;;;;;;22.48;13.03;;;;;;;6.79;53.01;100915.92;1711188;81;21352;-50
2021/03/31 02:11:48;;;;;;;22.55;13.18;;;;;;;6.76;53.16;100903.89;1707776;81;21057;-51
2021/03/31 02:14:19;;;;;;;21.30;14.28;;;;;;;6.75;53.08;100898.11;1712615;82;21125;-51
2021/03/31 02:16:49;;;;;;;18.05;13.03;;;;;;;6.74;53.20;100896.34;1711101;81;21075;-51
2021/03/31 02:19:18;;;;;;;19.67;12.37;;;;;;;6.74;53.07;100900.37;1710837;82;20999;-50
2021/03/31 02:21:48;;;;;;;20.08;13.30;;;;;;;6.74;53.12;100903.50;1712730;81;21018;-52
2021/03/31 02:24:18;;;;;;;19.82;12.45;;;;;;;6.73;53.08;100906.64;1711382;81;21038;-50
2021/03/31 02:26:48;;;;;;;20.90;12.63;;;;;;;6.73;53.30;100901.74;1716949;82;21002;-51
2021/03/31 02:29:15;;;;;;;22.73;14.00;;;;;;;6.73;53.49;100894.58;1715557;81;21559;-50
2021/03/31 02:31:44;;;;;;;20.08;13.53;;;;;;;6.72;53.85;100892.81;1713780;81;21119;-50
2021/03/31 02:34:13;;;;;;;20.15;13.35;;;;;;;6.71;54.31;100893.73;1711405;82;22041;-50
2021/03/31 02:36:42;;;;;;;20.08;13.68;;;;;;;6.67;54.68;100892.00;1711097;82;21010;-52
2021/03/31 02:39:11;;;;;;;24.63;13.90;;;;;;;6.64;54.67;100893.38;1710735;82;21157;-51
2021/03/31 02:41:44;;;;;;;25.77;14.20;;;;;;;6.62;55.17;100887.17;1711168;82;21098;-51
2021/03/31 02:44:20;;;;;;;28.15;13.78;;;;;;;6.64;55.33;100894.72;1861351;76;22724;-52
2021/03/31 02:46:50;;;;;;;24.95;14.25;;;;;;;6.57;55.33;100887.69;1765982;80;21584;-50
2021/03/31 02:49:18;;;;;;;25.77;14.13;;;;;;;6.55;55.75;100892.17;1821457;78;22229;-50
2021/03/31 02:51:47;;;;;;;24.37;15.15;;;;;;;6.54;56.10;100891.75;1793069;78;21011;-51
2021/03/31 02:54:15;;;;;;;20.77;13.90;;;;;;;6.52;56.34;100890.44;1769970;78;21013;-52
2021/03/31 02:56:44;;;;;;;22.95;13.93;;;;;;;6.52;56.50;100897.59;1785721;80;20989;-52
2021/03/31 02:59:12;;;;;;;23.95;15.00;;;;;;;6.51;57.12;100895.83;1789783;80;21005;-52
2021/03/31 03:01:41;;;;;;;18.92;12.68;;;;;;;6.47;57.35;100890.08;1758775;80;22282;-53
2021/03/31 03:04:10;;;;;;;22.27;13.48;;;;;;;6.46;57.70;100884.30;1789525;80;21013;-52
2021/03/31 03:06:40;;;;;;;20.80;13.35;;;;;;;6.43;57.89;100884.33;1791658;79;20949;-53
2021/03/31 03:09:09;;;;;;;21.00;14.18;;;;;;;6.42;57.92;100875.86;1790008;79;21094;-53
2021/03/31 03:11:38;;;;;;;19.37;13.18;;;;;;;6.40;58.06;100882.59;1783137;80;20962;-53
2021/03/31 03:14:07;;;;;;;22.42;14.10;;;;;;;6.39;58.55;100878.58;1789735;79;21204;-54
2021/03/31 03:16:36;;;;;;;25.82;13.45;;;;;;;6.38;58.73;100876.81;1820474;78;21103;-54
2021/03/31 03:19:07;;;;;;;21.02;13.93;;;;;;;6.35;58.67;100875.53;1764898;80;21131;-53
2021/03/31 03:21:37;;;;;;;22.10;13.45;;;;;;;6.32;58.93;100873.77;1792240;79;21131;-53
2021/03/31 03:24:08;;;;;;;22.62;14.23;;;;;;;6.28;59.50;100871.61;1787828;79;21134;-53
2021/03/31 03:26:37;;;;;;;19.95;14.28;;;;;;;6.26;59.81;100869.84;1821494;78;22245;-52
2021/03/31 03:29:09;;;;;;;20.15;13.30;;;;;;;6.24;59.87;100860.50;1792690;78;21573;-53
2021/03/31 03:31:38;;;;;;;21.05;14.98;;;;;;;6.21;60.32;100865.89;1793142;78;20963;-52
2021/03/31 03:34:07;;;;;;;21.35;15.20;;;;;;;6.19;60.53;100867.72;1769803;79;21036;-54
2021/03/31 03:36:42;;;;;;;21.82;14.58;;;;;;;6.16;60.64;100867.75;1785980;80;20962;-56
2021/03/31 03:39:10;;;;;;;27.10;14.78;;;;;;;6.16;60.70;100864.19;1790033;78;21374;-51
2021/03/31 03:41:38;;;;;;;21.50;14.07;;;;;;;6.14;60.87;100865.56;1786359;80;21113;-53
2021/03/31 03:44:07;;;;;;;22.37;15.23;;;;;;;6.14;60.92;100871.37;1790193;80;21017;-54
2021/03/31 03:46:35;;;;;;;22.75;13.62;;;;;;;6.11;60.85;100864.25;1785361;80;21120;-52
2021/03/31 03:49:05;;;;;;;23.80;14.85;;;;;;;6.12;61.27;100871.83;1790681;80;21561;-53
2021/03/31 03:51:33;;;;;;;20.77;14.18;;;;;;;6.09;61.26;100866.08;1786114;80;21378;-53
2021/03/31 03:54:09;;;;;;;24.55;15.15;;;;;;;6.09;61.39;100866.08;1790036;80;21017;-54
2021/03/31 03:56:38;;;;;;;26.73;16.97;;;;;;;6.08;61.55;100862.98;1758071;80;21152;-49
2021/03/31 03:59:24;;;;;;;23.02;14.58;;;;;;;6.08;61.71;100868.33;1791774;79;21014;-48
2021/03/31 04:02:00;;;;;;;26.17;15.60;;;;;;;6.09;62.11;100860.72;1800938;75;22689;-49
2021/03/31 04:04:28;;;;;;;23.92;16.32;;;;;;;6.02;62.64;100856.38;1705230;79;20954;-48
2021/03/31 04:07:00;;;;;;;25.75;14.95;;;;;;;5.99;63.33;100852.38;1783096;79;21573;-49
2021/03/31 04:09:28;;;;;;;24.50;15.05;;;;;;;5.96;63.55;100853.75;1781779;80;20966;-51
2021/03/31 04:11:56;;;;;;;26.73;16.07;;;;;;;5.91;63.71;100855.56;1782223;79;21688;-49
2021/03/31 04:14:24;;;;;;;27.10;16.37;;;;;;;5.89;64.13;100854.72;1762209;80;21609;-48
2021/03/31 04:16:52;;;;;;;27.10;16.65;;;;;;;5.85;64.66;100850.30;1781673;79;21041;-49
2021/03/31 04:19:20;;;;;;;25.35;16.93;;;;;;;5.82;65.02;100860.61;1782730;80;22257;-49
2021/03/31 04:21:48;;;;;;;33.70;16.77;;;;;;;5.78;65.44;100858.41;1780909;79;21049;-50
2021/03/31 04:24:16;;;;;;;25.75;16.75;;;;;;;5.76;65.83;100854.89;1779057;80;21020;-51
2021/03/31 04:26:46;;;;;;;26.50;16.35;;;;;;;5.72;66.64;100854.48;1780566;78;20986;-51
2021/03/31 04:29:15;;;;;;;27.93;16.87;;;;;;;5.70;66.86;100860.32;1780589;79;21122;-50
2021/03/31 04:31:43;;;;;;;28.17;17.77;;;;;;;5.69;67.00;100853.17;1781683;79;21197;-51
2021/03/31 04:34:11;;;;;;;32.98;16.93;;;;;;;5.68;67.13;100850.06;1781110;80;20970;-52
2021/03/31 04:36:39;;;;;;;26.27;16.50;;;;;;;5.68;67.34;100848.73;1768880;80;21672;-54
2021/03/31 04:39:07;;;;;;;22.77;15.25;;;;;;;5.68;67.80;100844.72;1779228;79;21663;-50
2021/03/31 04:41:36;;;;;;;24.55;17.07;;;;;;;5.68;67.74;100843.37;1781741;79;21140;-51
2021/03/31 04:44:06;;;;;;;26.82;16.10;;;;;;;5.68;67.80;100848.73;1781059;80;21369;-54
2021/03/31 04:46:34;;;;;;;29.92;16.23;;;;;;;5.68;67.93;100848.73;1779532;79;20977;-53
2021/03/31 04:49:02;;;;;;;27.10;16.75;;;;;;;5.66;68.08;100845.20;1780048;79;20958;-56
2021/03/31 04:51:30;;;;;;;25.80;16.25;;;;;;;5.67;68.17;100848.30;1781728;79;20981;-50
2021/03/31 04:53:58;;;;;;;23.85;16.50;;;;;;;5.66;68.29;100839.84;1779273;78;21164;-52
2021/03/31 04:56:26;;;;;;;31.65;17.67;;;;;;;5.68;68.23;100847.84;1779507;79;21423;-50
2021/03/31 04:58:55;;;;;;;26.00;16.80;;;;;;;5.69;68.24;100843.80;1780853;79;21374;-50
2021/03/31 05:01:22;;;;;;;27.27;17.27;;;;;;;5.70;68.30;100845.60;1779118;79;21501;-50
2021/03/31 05:03:51;;;;;;;27.13;17.37;;;;;;;5.72;68.35;100841.10;1780288;78;20958;-50
2021/03/31 05:06:18;;;;;;;26.65;17.27;;;;;;;5.73;68.33;100837.52;1779704;79;21582;-50
2021/03/31 05:08:47;;;;;;;26.05;16.87;;;;;;;5.74;68.64;100840.62;1780644;79;21202;-50
2021/03/31 05:11:16;;;;;;;24.82;16.40;;;;;;;5.76;68.59;100840.63;1781592;79;21545;-50
2021/03/31 05:13:45;;;;;;;26.93;15.78;;;;;;;5.77;68.42;100837.91;1780282;79;21734;-50
2021/03/31 05:16:15;;;;;;;27.87;18.30;;;;;;;5.78;68.53;100834.33;1779886;79;21022;-50
2021/03/31 05:18:43;;;;;;;28.70;16.67;;;;;;;5.81;68.36;100835.21;1779897;79;21152;-50
2021/03/31 05:21:11;;;;;;;28.83;18.45;;;;;;;5.82;68.52;100842.33;1779893;78;21756;-50
2021/03/31 05:23:39;;;;;;;27.50;17.30;;;;;;;5.83;68.49;100846.77;1779260;79;20989;-50
2021/03/31 05:26:07;;;;;;;28.98;16.57;;;;;;;5.84;68.64;100840.50;1780922;79;21518;-50
2021/03/31 05:28:37;;;;;;;27.02;18.70;;;;;;;5.88;68.81;100839.56;1779457;79;20978;-51
2021/03/31 05:31:07;;;;;;;27.25;17.57;;;;;;;5.92;68.73;100841.34;1782445;79;20981;-51
2021/03/31 05:33:35;;;;;;;28.17;17.62;;;;;;;5.94;68.71;100847.09;1778659;79;21327;-50
2021/03/31 05:36:04;;;;;;;28.70;19.77;;;;;;;5.96;68.79;100839.02;1781022;79;21620;-51
2021/03/31 05:38:32;;;;;;;26.75;17.62;;;;;;;6.00;68.82;100838.08;1765681;79;20954;-55
2021/03/31 05:41:00;;;;;;;26.82;17.20;;;;;;;6.02;68.87;100838.97;1780207;79;21100;-50
2021/03/31 05:43:29;;;;;;;30.68;18.07;;;;;;;6.02;68.96;100838.51;1779550;79;21541;-50
2021/03/31 05:45:58;;;;;;;28.47;17.32;;;;;;;6.04;69.04;100827.77;1778164;79;21196;-50
2021/03/31 05:48:26;;;;;;;26.80;18.00;;;;;;;6.06;69.25;100830.41;1780436;79;20971;-49
2021/03/31 05:50:53;;;;;;;30.05;18.27;;;;;;;6.08;69.24;100829.50;1779151;79;21161;-51
2021/03/31 05:53:21;;;;;;;27.27;17.77;;;;;;;6.10;69.55;100833.02;1778879;79;21128;-49
2021/03/31 05:55:49;;;;;;;28.98;18.60;;;;;;;6.06;69.54;100827.28;1779395;78;21167;-51
2021/03/31 05:58:18;;;;;;;26.93;18.00;;;;;;;6.06;69.76;100825.94;1781662;79;22936;-50
2021/03/31 06:00:47;;;;;;;26.27;18.40;;;;;;;6.04;70.05;100820.61;1779797;79;21163;-50
2021/03/31 06:03:15;;;;;;;28.87;18.87;;;;;;;6.02;70.29;100823.78;1780640;80;21127;-53
2021/03/31 06:05:42;;;;;;;29.02;17.87;;;;;;;6.02;70.58;100825.58;1780524;79;20993;-52
2021/03/31 06:08:11;;;;;;;30.02;18.75;;;;;;;6.03;70.79;100820.64;1780987;78;20969;-52
2021/03/31 06:10:39;;;;;;;30.97;19.75;;;;;;;6.04;71.05;100819.73;1780682;78;21371;-52
2021/03/31 06:13:07;;;;;;;30.60;19.25;;;;;;;6.04;71.31;100821.07;1780625;79;21528;-51
2021/03/31 06:15:43;;;;;;;34.55;20.25;;;;;;;6.06;71.41;100819.24;1779410;79;21293;-52
2021/03/31 06:18:16;;;;;;;29.65;18.95;;;;;;;6.08;71.66;100821.47;1779431;79;21711;-52
2021/03/31 06:26:27;;;;;;;35.23;21.00;;;;;;;6.17;72.06;100810.59;1811970;77;21202;-50
2021/03/31 06:28:59;;;;;;;34.27;20.05;;;;;;;6.18;72.46;100809.70;1811979;79;21443;-52
2021/03/31 06:31:35;;;;;;;35.70;20.65;;;;;;;6.20;72.59;100810.56;1805667;78;21560;-50
2021/03/31 06:34:07;;;;;;;33.55;21.73;;;;;;;6.24;72.71;100813.63;1812837;78;20978;-51
2021/03/31 06:39:37;;;;;;;32.38;21.57;;;;;;;6.39;72.91;100802.22;1812808;76;22447;-51
2021/03/31 06:44:58;;;;;;;34.27;23.30;;;;;;;6.51;73.09;100811.42;1813486;78;22709;-53
2021/03/31 06:47:39;;;;;;;34.95;21.85;;;;;;;6.47;73.22;100806.55;1764755;79;20955;-51
2021/03/31 06:50:10;;;;;;;37.80;22.67;;;;;;;6.52;73.17;100805.14;1747707;80;22301;-50
2021/03/31 06:52:56;;;;;;;38.98;23.12;;;;;;;6.53;73.12;100795.72;1747165;79;21310;-49
2021/03/31 06:55:26;;;;;;;39.25;23.10;;;;;;;6.56;73.15;100788.10;1753433;80;21553;-50
2021/03/31 06:57:57;;;;;;;39.05;22.70;;;;;;;6.58;73.29;100795.65;1752936;79;21005;-49
2021/03/31 07:00:34;;;;;;;34.43;22.00;;;;;;;6.69;73.39;100785.63;1816509;76;22805;-50
2021/03/31 07:03:07;;;;;;;36.20;24.15;;;;;;;6.67;73.55;100782.09;1764897;78;20973;-47
2021/03/31 07:05:40;;;;;;;34.67;22.42;;;;;;;6.70;73.50;100782.02;1759167;78;21197;-50
2021/03/31 07:08:15;;;;;;;37.17;24.57;;;;;;;6.74;73.49;100783.75;1759312;79;21604;-54
2021/03/31 07:10:50;;;;;;;34.03;23.10;;;;;;;6.78;73.55;100780.11;1755574;79;21001;-48
2021/03/31 07:13:34;;;;;;;45.58;23.67;;;;;;;6.83;73.63;100777.34;1758538;78;21528;-50
2021/03/31 07:16:05;;;;;;;39.25;23.60;;;;;;;6.88;73.56;100779.48;1755681;80;21171;-49
2021/03/31 07:18:34;;;;;;;35.38;23.30;;;;;;;6.94;73.52;100766.42;1760438;79;21368;-49
2021/03/31 07:21:02;;;;;;;33.42;23.65;;;;;;;7.02;73.63;100769.81;1761254;79;21021;-50
2021/03/31 07:23:30;;;;;;;42.23;26.27;;;;;;;7.09;73.53;100771.48;1763133;80;21708;-52
2021/03/31 07:25:58;;;;;;;40.83;26.00;;;;;;;7.14;73.57;100772.28;1756557;78;21684;-49
2021/03/31 07:28:29;;;;;;;39.88;26.40;;;;;;;7.19;73.46;100769.05;1757768;80;21144;-47
2021/03/31 07:30:58;;;;;;;40.67;24.47;;;;;;;7.28;73.64;100770.19;1758042;78;21308;-50
2021/03/31 07:33:26;;;;;;;35.30;23.85;;;;;;;7.35;73.66;100759.77;1758874;79;21263;-49
2021/03/31 07:35:55;;;;;;;38.70;23.18;;;;;;;7.41;73.41;100761.91;1756862;78;21565;-51
2021/03/31 07:38:23;;;;;;;40.48;26.05;;;;;;;7.45;73.30;100754.19;1757256;79;21197;-49
2021/03/31 07:40:52;;;;;;;35.78;24.25;;;;;;;7.49;73.23;100750.53;1730770;79;21136;-50
2021/03/31 07:43:30;;;;;;;39.88;25.15;;;;;;;7.55;73.13;100749.05;1756298;79;21581;-51
2021/03/31 07:46:10;;;;;;;40.65;23.18;;;;;;;7.61;73.03;100748.91;1754792;79;21147;-49
2021/03/31 07:48:38;;;;;;;35.70;22.52;;;;;;;7.65;72.78;100751.95;1755673;80;21001;-49
2021/03/31 07:51:24;;;;;;;33.98;22.17;;;;;;;7.69;72.78;100752.32;1756153;79;22066;-53
2021/03/31 07:53:53;;;;;;;36.25;23.55;;;;;;;7.72;72.60;100764.31;1756337;78;21143;-51
2021/03/31 07:56:35;;;;;;;39.15;23.30;;;;;;;7.76;72.58;100756.63;1756216;79;21590;-51
2021/03/31 07:59:11;;;;;;;32.83;22.73;;;;;;;7.83;72.50;100758.27;1734925;79;21119;-49
2021/03/31 08:01:56;;;;;;;33.25;21.52;;;;;;;7.94;72.44;100746.41;1797106;78;23361;-50
2021/03/31 08:04:26;;;;;;;30.82;20.40;;;;;;;7.94;72.21;100751.78;1751963;79;20966;-50
2021/03/31 08:06:56;;;;;;;31.68;21.35;;;;;;;7.96;72.14;100749.92;1759929;79;22318;-50
2021/03/31 08:09:27;;;;;;;37.08;23.67;;;;;;;8.00;71.99;100746.25;1751955;79;20970;-51
2021/03/31 08:12:04;;;;;;;47.67;28.77;;;;;;;8.06;71.90;100748.79;1753871;79;20985;-51
2021/03/31 08:14:37;;;;;;;41.23;25.40;;;;;;;8.12;71.83;100736.55;1751502;79;21490;-49
2021/03/31 08:17:10;;;;;;;35.30;22.13;;;;;;;8.17;71.72;100735.97;1752686;79;21407;-50
2021/03/31 08:19:41;;;;;;;35.35;21.90;;;;;;;8.25;71.60;100734.42;1751838;79;21952;-48
2021/03/31 08:22:37;;;;;;;33.18;22.42;;;;;;;8.32;71.44;100735.59;1752455;79;21028;-50
2021/03/31 08:25:23;;;;;;;46.45;21.90;;;;;;;8.38;71.29;100735.47;1750837;79;21163;-51
2021/03/31 08:27:58;;;;;;;38.42;22.85;;;;;;;8.47;71.20;100736.14;1756113;79;21155;-48
2021/03/31 08:30:26;;;;;;;32.08;21.00;;;;;;;8.57;70.96;100733.63;1753283;79;21688;-50
2021/03/31 08:32:54;;;;;;;36.42;22.90;;;;;;;8.65;70.70;100731.64;1755591;79;21371;-48
2021/03/31 08:35:24;;;;;;;36.55;21.55;;;;;;;8.72;70.46;100720.25;1750419;79;22064;-52
2021/03/31 08:37:52;;;;;;;38.15;22.45;;;;;;;8.75;70.31;100722.41;1750259;79;21177;-48
2021/03/31 08:40:21;;;;;;;32.30;22.40;;;;;;;8.79;70.15;100721.84;1751591;79;20985;-49
2021/03/31 08:42:53;;;;;;;38.53;23.12;;;;;;;8.83;70.04;100720.38;1753601;79;21712;-48
2021/03/31 08:45:37;;;;;;;38.35;23.27;;;;;;;8.89;69.94;100712.16;1760723;79;21360;-53
2021/03/31 08:48:15;;;;;;;38.63;23.15;;;;;;;9.03;69.91;100714.91;1822153;77;22720;-48
2021/03/31 08:50:46;;;;;;;38.78;23.73;;;;;;;9.06;69.78;100709.45;1791013;78;20969;-50
2021/03/31 08:53:16;;;;;;;38.23;23.98;;;;;;;9.15;69.50;100710.52;1753344;80;22039;-51
2021/03/31 08:55:46;;;;;;;35.60;23.57;;;;;;;9.26;69.34;100705.69;1719961;81;20970;-49
2021/03/31 08:58:14;;;;;;;36.33;22.25;;;;;;;9.36;68.86;100711.22;1757897;80;21009;-46
2021/03/31 09:00:51;;;;;;;34.88;21.97;;;;;;;9.44;68.68;100708.31;1730072;80;21008;-47
2021/03/31 09:03:19;;;;;;;37.48;24.15;;;;;;;9.53;68.36;100707.14;1758515;79;20981;-46
2021/03/31 09:06:02;;;;;;;39.73;24.43;;;;;;;9.59;68.09;100701.59;1738805;80;21389;-46
2021/03/31 09:08:30;;;;;;;34.05;23.00;;;;;;;9.63;67.88;100710.84;1727509;81;21037;-47
2021/03/31 09:11:04;;;;;;;39.20;24.32;;;;;;;9.69;67.75;100709.34;1746740;81;21522;-47
2021/03/31 09:13:34;;;;;;;41.28;23.70;;;;;;;9.82;67.58;100698.16;1748460;81;20954;-50
2021/03/31 09:16:11;;;;;;;37.60;24.43;;;;;;;9.82;67.58;100698.16;1745897;81;20982;-50
2021/03/31 09:18:42;;;;;;;35.85;22.90;;;;;;;9.88;67.26;100698.84;1745369;81;21205;-51
2021/03/31 09:21:26;;;;;;;37.20;23.15;;;;;;;10.02;67.19;100694.83;1809692;76;22434;-50
2021/03/31 09:23:55;;;;;;;41.90;25.00;;;;;;;10.05;67.12;100696.94;1757781;79;21581;-53
2021/03/31 09:26:23;;;;;;;40.65;24.63;;;;;;;10.15;66.70;100693.48;1756625;79;21369;-51
2021/03/31 09:28:51;;;;;;;41.42;23.90;;;;;;;10.21;66.44;100690.57;1759079;80;21106;-52
2021/03/31 09:31:24;;;;;;;38.95;24.35;;;;;;;10.37;66.18;100691.84;1759057;79;21009;-51
2021/03/31 09:33:52;;;;;;;39.75;24.35;;;;;;;10.37;66.18;100691.84;1760783;79;21798;-56
2021/03/31 09:36:22;;;;;;;37.53;23.75;;;;;;;10.43;65.81;100691.63;1735413;80;20994;-53
2021/03/31 09:38:55;;;;;;;37.98;24.05;;;;;;;10.52;65.66;100690.91;1761161;79;21963;-52
2021/03/31 09:41:25;;;;;;;36.60;24.23;;;;;;;10.59;65.41;100693.80;1757639;79;21071;-52
2021/03/31 09:43:54;;;;;;;37.30;24.07;;;;;;;10.66;65.30;100692.66;1759754;79;21688;-51
2021/03/31 09:46:27;;;;;;;31.87;23.77;;;;;;;10.70;65.07;100686.20;1760724;78;21151;-51
2021/03/31 09:48:55;;;;;;;37.25;23.60;;;;;;;10.75;64.75;100690.96;1757672;79;21101;-51
2021/03/31 09:51:24;;;;;;;37.48;22.98;;;;;;;10.78;64.65;100687.30;1758587;79;22251;-52
2021/03/31 09:53:52;;;;;;;36.73;23.80;;;;;;;10.83;64.57;100688.89;1757498;79;21001;-52
2021/03/31 09:56:20;;;;;;;38.88;23.65;;;;;;;10.86;64.41;100692.80;1756734;79;21553;-51
2021/03/31 09:58:49;;;;;;;34.65;23.27;;;;;;;10.89;64.56;100683.26;1762051;79;21545;-52
2021/03/31 10:01:18;;;;;;;37.73;23.57;;;;;;;10.94;64.27;100679.92;1765040;79;21648;-51
2021/03/31 10:03:47;;;;;;;35.52;22.45;;;;;;;10.99;63.88;100686.03;1758145;80;21375;-50
2021/03/31 10:08:59;;;;;;;53.83;31.93;;;;;;;11.13;63.83;100679.22;1809793;76;23224;-51
2021/03/31 10:11:36;;;;;;;61.18;35.05;;;;;;;11.15;63.63;100674.67;1779953;79;21546;-52
2021/03/31 10:14:05;;;;;;;33.25;23.95;;;;;;;11.22;63.38;100676.19;1759884;80;21358;-51
2021/03/31 10:16:36;;;;;;;32.67;22.55;;;;;;;11.28;63.22;100678.64;1758886;79;21451;-53
2021/03/31 10:19:07;;;;;;;36.23;22.98;;;;;;;11.33;62.91;100672.59;1763192;79;21884;-51
2021/03/31 10:21:37;;;;;;;32.03;22.45;;;;;;;11.39;62.69;100671.01;1760209;79;21300;-49
2021/03/31 10:24:07;;;;;;;32.45;21.65;;;;;;;11.43;62.51;100674.48;1753891;79;21025;-50
2021/03/31 10:26:38;;;;;;;36.53;23.23;;;;;;;11.44;62.36;100669.02;1748570;79;21374;-50
2021/03/31 10:29:23;;;;;;;32.50;23.05;;;;;;;11.46;62.40;100667.15;1751372;79;21048;-50
2021/03/31 10:31:54;;;;;;;31.42;22.30;;;;;;;11.48;62.26;100669.30;1751532;79;21103;-48
2021/03/31 10:34:22;;;;;;;29.95;21.73;;;;;;;11.49;62.33;100664.30;1752855;80;21062;-49
2021/03/31 10:48:39;;;;;;;37.08;23.80;;;;;;;11.60;62.21;100663.00;1753105;79;21465;-49
2021/03/31 10:56:28;;;;;;;33.53;24.43;;;;;;;11.73;62.01;100644.02;1757060;79;21028;-51
2021/03/31 10:58:57;;;;;;;52.05;33.78;;;;;;;11.77;61.82;100646.98;1757598;79;21684;-52
2021/03/31 11:01:25;;;;;;;44.25;26.80;;;;;;;11.79;61.79;100640.59;1754798;80;20990;-50
2021/03/31 11:03:53;;;;;;;38.67;25.92;;;;;;;11.82;61.78;100634.67;1757675;80;21589;-50
2021/03/31 11:06:24;;;;;;;38.78;26.40;;;;;;;11.86;61.76;100633.14;1753977;80;21230;-52
2021/03/31 11:08:52;;;;;;;40.73;26.80;;;;;;;11.91;61.64;100637.88;1739896;80;21177;-51
2021/03/31 11:11:20;;;;;;;39.80;26.70;;;;;;;11.95;61.56;100627.36;1747820;79;21128;-50
2021/03/31 11:13:48;;;;;;;41.15;27.42;;;;;;;12.01;61.51;100628.92;1749575;79;21153;-53
2021/03/31 11:16:18;;;;;;;41.55;25.72;;;;;;;12.06;61.44;100629.13;1747216;79;21105;-50
2021/03/31 11:26:54;;;;;;;44.90;28.40;;;;;;;12.42;60.90;100608.21;1748800;79;21125;-52
2021/03/31 11:29:22;;;;;;;42.67;26.17;;;;;;;12.52;60.53;100612.75;1747844;81;21006;-54
2021/03/31 11:31:52;;;;;;;47.65;29.10;;;;;;;12.61;60.34;100615.50;1751169;79;21201;-50
2021/03/31 11:34:20;;;;;;;45.65;29.42;;;;;;;12.66;60.09;100609.41;1750903;79;21511;-50
2021/03/31 11:36:50;;;;;;;43.52;27.50;;;;;;;12.70;59.97;100602.91;1745187;80;21172;-52
2021/03/31 11:39:19;;;;;;;38.17;26.93;;;;;;;12.74;59.84;100609.48;1748561;80;20978;-49
2021/03/31 11:41:48;;;;;;;46.20;28.70;;;;;;;12.81;59.74;100607.36;1710136;81;21505;-51
2021/03/31 11:44:16;;;;;;;44.10;30.75;;;;;;;12.88;59.56;100603.41;1711031;81;21929;-51
2021/03/31 11:46:44;;;;;;;43.42;29.82;;;;;;;12.95;59.62;100600.84;1709099;81;21585;-51
2021/03/31 11:49:12;;;;;;;47.27;28.38;;;;;;;13.01;59.39;100591.08;1690752;82;21139;-51
2021/03/31 11:51:41;;;;;;;42.60;28.65;;;;;;;13.10;59.13;100596.07;1742516;79;21954;-50
2021/03/31 11:54:10;;;;;;;44.98;28.75;;;;;;;13.17;59.07;100591.71;1746142;79;21148;-54
2021/03/31 11:56:38;;;;;;;44.53;28.15;;;;;;;13.23;58.97;100596.39;1742656;81;21351;-50
2021/03/31 11:59:08;;;;;;;44.60;28.60;;;;;;;13.31;58.87;100594.17;1725620;78;21044;-51
2021/03/31 12:01:38;;;;;;;41.33;28.17;;;;;;;13.38;58.81;100592.07;1742260;79;21148;-50
2021/03/31 12:04:06;;;;;;;49.35;28.73;;;;;;;13.41;59.17;100586.48;1748304;81;20978;-50
2021/03/31 12:06:34;;;;;;;47.50;29.02;;;;;;;13.41;59.45;100582.42;1743201;80;21098;-52
2021/03/31 12:09:02;;;;;;;47.43;29.65;;;;;;;13.43;59.41;100583.24;1751504;79;22146;-51
2021/03/31 12:11:32;;;;;;;48.20;29.45;;;;;;;13.45;59.27;100577.26;1759037;79;21026;-52
2021/03/31 12:14:02;;;;;;;45.45;29.32;;;;;;;13.46;58.92;100569.53;1763255;80;20993;-51